sensor_id;sensor_type;location;lat;lon;timestamp;temperature;humidity
16408;DHT22;8313;49.894;8.084;2022-07-30T00:02:14;21.90;75.10
16408;DHT22;8313;49.894;8.084;2022-07-30T00:04:41;21.90;75.10
16408;DHT22;8313;49.894;8.084;2022-07-30T00:07:07;21.80;75.20
16408;DHT22;8313;49.894;8.084;2022-07-30T00:09:33;21.80;75.60
16408;DHT22;8313;49.894;8.084;2022-07-30T00:11:59;21.70;75.50
16408;DHT22;8313;49.894;8.084;2022-07-30T00:14:24;21.70;75.70
16408;DHT22;8313;49.894;8.084;2022-07-30T00:16:51;21.80;75.70
16408;DHT22;8313;49.894;8.084;2022-07-30T00:19:17;21.80;75.70
16408;DHT22;8313;49.894;8.084;2022-07-30T00:21:43;21.80;76.50
16408;DHT22;8313;49.894;8.084;2022-07-30T00:24:09;21.80;75.50
16408;DHT22;8313;49.894;8.084;2022-07-30T00:26:35;21.70;75.40
16408;DHT22;8313;49.894;8.084;2022-07-30T00:29:01;21.70;75.30
16408;DHT22;8313;49.894;8.084;2022-07-30T00:31:27;21.70;75.30
16408;DHT22;8313;49.894;8.084;2022-07-30T00:33:53;21.70;75.20
16408;DHT22;8313;49.894;8.084;2022-07-30T00:36:19;21.70;75.20
16408;DHT22;8313;49.894;8.084;2022-07-30T00:38:45;21.70;75.40
16408;DHT22;8313;49.894;8.084;2022-07-30T00:41:11;21.70;75.30
16408;DHT22;8313;49.894;8.084;2022-07-30T00:43:36;21.60;75.20
16408;DHT22;8313;49.894;8.084;2022-07-30T00:46:02;21.70;75.40
16408;DHT22;8313;49.894;8.084;2022-07-30T00:48:28;21.70;75.40
16408;DHT22;8313;49.894;8.084;2022-07-30T00:50:53;21.60;75.10
16408;DHT22;8313;49.894;8.084;2022-07-30T00:53:19;21.60;75.20
16408;DHT22;8313;49.894;8.084;2022-07-30T00:55:45;21.50;75.00
16408;DHT22;8313;49.894;8.084;2022-07-30T00:58:10;21.60;75.30
16408;DHT22;8313;49.894;8.084;2022-07-30T01:00:36;21.50;75.00
16408;DHT22;8313;49.894;8.084;2022-07-30T01:03:02;21.50;75.00
16408;DHT22;8313;49.894;8.084;2022-07-30T01:05:29;21.40;75.10
16408;DHT22;8313;49.894;8.084;2022-07-30T01:07:55;21.40;75.00
16408;DHT22;8313;49.894;8.084;2022-07-30T01:10:20;21.40;75.00
16408;DHT22;8313;49.894;8.084;2022-07-30T01:12:46;21.40;75.20
16408;DHT22;8313;49.894;8.084;2022-07-30T01:15:12;21.40;75.20
16408;DHT22;8313;49.894;8.084;2022-07-30T01:17:38;21.30;75.10
16408;DHT22;8313;49.894;8.084;2022-07-30T01:20:10;21.20;74.90
16408;DHT22;8313;49.894;8.084;2022-07-30T01:22:49;21.30;75.20
16408;DHT22;8313;49.894;8.084;2022-07-30T01:28:09;21.20;75.40
16408;DHT22;8313;49.894;8.084;2022-07-30T01:30:40;21.20;75.40
16408;DHT22;8313;49.894;8.084;2022-07-30T01:33:10;21.20;75.40
16408;DHT22;8313;49.894;8.084;2022-07-30T01:35:36;21.20;75.50
16408;DHT22;8313;49.894;8.084;2022-07-30T01:38:04;21.20;75.60
16408;DHT22;8313;49.894;8.084;2022-07-30T01:40:31;21.10;75.60
16408;DHT22;8313;49.894;8.084;2022-07-30T01:43:00;21.10;75.70
16408;DHT22;8313;49.894;8.084;2022-07-30T01:45:29;21.00;75.50
16408;DHT22;8313;49.894;8.084;2022-07-30T01:47:57;21.00;75.50
16408;DHT22;8313;49.894;8.084;2022-07-30T01:50:23;21.00;75.50
16408;DHT22;8313;49.894;8.084;2022-07-30T01:52:53;21.00;75.60
16408;DHT22;8313;49.894;8.084;2022-07-30T01:55:40;20.90;75.50
16408;DHT22;8313;49.894;8.084;2022-07-30T01:58:06;20.90;75.60
16408;DHT22;8313;49.894;8.084;2022-07-30T02:00:38;20.80;75.80
16408;DHT22;8313;49.894;8.084;2022-07-30T02:03:05;20.80;75.90
16408;DHT22;8313;49.894;8.084;2022-07-30T02:05:34;20.80;76.30
16408;DHT22;8313;49.894;8.084;2022-07-30T02:08:12;20.80;76.60
16408;DHT22;8313;49.894;8.084;2022-07-30T02:11:15;20.70;76.40
16408;DHT22;8313;49.894;8.084;2022-07-30T02:14:02;20.70;77.70
16408;DHT22;8313;49.894;8.084;2022-07-30T02:16:35;20.70;77.10
16408;DHT22;8313;49.894;8.084;2022-07-30T02:19:07;20.60;76.90
16408;DHT22;8313;49.894;8.084;2022-07-30T02:21:41;20.60;77.40
16408;DHT22;8313;49.894;8.084;2022-07-30T02:24:12;20.50;77.60
16408;DHT22;8313;49.894;8.084;2022-07-30T02:26:40;20.40;77.70
16408;DHT22;8313;49.894;8.084;2022-07-30T02:29:08;20.40;78.10
16408;DHT22;8313;49.894;8.084;2022-07-30T02:31:36;20.40;78.40
16408;DHT22;8313;49.894;8.084;2022-07-30T02:34:04;20.20;78.40
16408;DHT22;8313;49.894;8.084;2022-07-30T02:36:32;20.20;78.50
16408;DHT22;8313;49.894;8.084;2022-07-30T02:39:02;20.20;78.70
16408;DHT22;8313;49.894;8.084;2022-07-30T02:41:29;20.10;78.70
16408;DHT22;8313;49.894;8.084;2022-07-30T02:43:56;20.20;78.70
16408;DHT22;8313;49.894;8.084;2022-07-30T02:46:23;20.20;78.70
16408;DHT22;8313;49.894;8.084;2022-07-30T02:49:14;20.20;78.60
16408;DHT22;8313;49.894;8.084;2022-07-30T02:51:41;20.20;78.50
16408;DHT22;8313;49.894;8.084;2022-07-30T02:54:08;20.10;78.40
16408;DHT22;8313;49.894;8.084;2022-07-30T02:56:35;20.20;78.50
16408;DHT22;8313;49.894;8.084;2022-07-30T02:59:02;20.10;78.50
16408;DHT22;8313;49.894;8.084;2022-07-30T03:01:30;20.10;78.60
16408;DHT22;8313;49.894;8.084;2022-07-30T03:03:57;20.10;78.90
16408;DHT22;8313;49.894;8.084;2022-07-30T03:06:24;20.00;78.80
16408;DHT22;8313;49.894;8.084;2022-07-30T03:08:52;20.00;78.80
16408;DHT22;8313;49.894;8.084;2022-07-30T03:11:20;20.00;78.80
16408;DHT22;8313;49.894;8.084;2022-07-30T03:13:46;20.00;78.60
16408;DHT22;8313;49.894;8.084;2022-07-30T03:16:13;19.90;78.70
16408;DHT22;8313;49.894;8.084;2022-07-30T03:18:41;19.90;78.60
16408;DHT22;8313;49.894;8.084;2022-07-30T03:21:09;19.90;78.60
16408;DHT22;8313;49.894;8.084;2022-07-30T03:23:39;20.00;78.60
16408;DHT22;8313;49.894;8.084;2022-07-30T03:26:06;20.00;78.40
16408;DHT22;8313;49.894;8.084;2022-07-30T03:28:36;20.00;78.30
16408;DHT22;8313;49.894;8.084;2022-07-30T03:31:04;20.00;78.70
16408;DHT22;8313;49.894;8.084;2022-07-30T03:33:31;20.00;78.50
16408;DHT22;8313;49.894;8.084;2022-07-30T03:35:58;19.90;78.50
16408;DHT22;8313;49.894;8.084;2022-07-30T03:38:26;20.00;78.60
16408;DHT22;8313;49.894;8.084;2022-07-30T03:40:53;19.90;78.40
16408;DHT22;8313;49.894;8.084;2022-07-30T03:43:19;19.90;78.40
16408;DHT22;8313;49.894;8.084;2022-07-30T03:45:46;19.90;78.60
16408;DHT22;8313;49.894;8.084;2022-07-30T03:48:15;19.90;78.70
16408;DHT22;8313;49.894;8.084;2022-07-30T03:50:45;19.80;79.00
16408;DHT22;8313;49.894;8.084;2022-07-30T03:53:12;19.80;79.10
16408;DHT22;8313;49.894;8.084;2022-07-30T03:56:02;19.80;79.00
16408;DHT22;8313;49.894;8.084;2022-07-30T03:58:46;19.80;79.30
16408;DHT22;8313;49.894;8.084;2022-07-30T04:01:12;19.80;79.40
16408;DHT22;8313;49.894;8.084;2022-07-30T04:03:39;19.80;79.40
16408;DHT22;8313;49.894;8.084;2022-07-30T04:06:05;19.70;79.20
16408;DHT22;8313;49.894;8.084;2022-07-30T04:08:31;19.80;79.20
16408;DHT22;8313;49.894;8.084;2022-07-30T04:10:57;19.80;79.40
16408;DHT22;8313;49.894;8.084;2022-07-30T04:13:41;19.80;79.80
16408;DHT22;8313;49.894;8.084;2022-07-30T04:16:17;19.70;79.70
16408;DHT22;8313;49.894;8.084;2022-07-30T04:18:47;19.70;79.60
16408;DHT22;8313;49.894;8.084;2022-07-30T04:21:16;19.70;80.50
16408;DHT22;8313;49.894;8.084;2022-07-30T04:23:45;19.70;80.10
16408;DHT22;8313;49.894;8.084;2022-07-30T04:26:12;19.70;79.80
16408;DHT22;8313;49.894;8.084;2022-07-30T04:28:38;19.70;79.90
16408;DHT22;8313;49.894;8.084;2022-07-30T04:31:04;19.70;80.00
16408;DHT22;8313;49.894;8.084;2022-07-30T04:33:31;19.70;80.10
16408;DHT22;8313;49.894;8.084;2022-07-30T04:36:12;19.70;80.20
16408;DHT22;8313;49.894;8.084;2022-07-30T04:38:38;19.70;80.00
16408;DHT22;8313;49.894;8.084;2022-07-30T04:41:03;19.80;80.20
16408;DHT22;8313;49.894;8.084;2022-07-30T04:43:45;19.70;79.90
16408;DHT22;8313;49.894;8.084;2022-07-30T04:46:13;19.80;80.10
16408;DHT22;8313;49.894;8.084;2022-07-30T04:48:38;19.70;80.00
16408;DHT22;8313;49.894;8.084;2022-07-30T04:51:24;19.70;79.90
16408;DHT22;8313;49.894;8.084;2022-07-30T04:53:52;19.80;80.40
16408;DHT22;8313;49.894;8.084;2022-07-30T04:56:20;19.80;79.70
16408;DHT22;8313;49.894;8.084;2022-07-30T04:58:47;19.80;79.90
16408;DHT22;8313;49.894;8.084;2022-07-30T05:01:17;19.80;79.70
16408;DHT22;8313;49.894;8.084;2022-07-30T05:03:45;19.80;79.90
16408;DHT22;8313;49.894;8.084;2022-07-30T05:06:13;19.80;79.70
16408;DHT22;8313;49.894;8.084;2022-07-30T05:08:39;19.80;81.20
16408;DHT22;8313;49.894;8.084;2022-07-30T05:11:12;19.80;79.60
16408;DHT22;8313;49.894;8.084;2022-07-30T05:13:42;19.80;81.70
16408;DHT22;8313;49.894;8.084;2022-07-30T05:16:10;19.80;81.90
16408;DHT22;8313;49.894;8.084;2022-07-30T05:18:36;19.80;81.90
16408;DHT22;8313;49.894;8.084;2022-07-30T05:21:03;19.80;81.70
16408;DHT22;8313;49.894;8.084;2022-07-30T05:23:33;19.80;83.10
16408;DHT22;8313;49.894;8.084;2022-07-30T05:26:22;19.90;82.10
16408;DHT22;8313;49.894;8.084;2022-07-30T05:28:50;19.90;82.30
16408;DHT22;8313;49.894;8.084;2022-07-30T05:31:18;19.90;82.30
16408;DHT22;8313;49.894;8.084;2022-07-30T05:33:52;19.90;82.30
16408;DHT22;8313;49.894;8.084;2022-07-30T05:36:22;19.90;83.10
16408;DHT22;8313;49.894;8.084;2022-07-30T05:38:49;20.00;83.20
16408;DHT22;8313;49.894;8.084;2022-07-30T05:41:46;20.00;84.30
16408;DHT22;8313;49.894;8.084;2022-07-30T05:44:17;20.00;83.90
16408;DHT22;8313;49.894;8.084;2022-07-30T05:46:43;20.10;84.50
16408;DHT22;8313;49.894;8.084;2022-07-30T05:49:08;20.10;85.00
16408;DHT22;8313;49.894;8.084;2022-07-30T05:51:34;20.10;85.70
16408;DHT22;8313;49.894;8.084;2022-07-30T05:54:00;20.20;85.10
16408;DHT22;8313;49.894;8.084;2022-07-30T05:56:40;20.20;84.90
16408;DHT22;8313;49.894;8.084;2022-07-30T05:59:13;20.20;84.60
16408;DHT22;8313;49.894;8.084;2022-07-30T06:02:03;20.20;84.60
16408;DHT22;8313;49.894;8.084;2022-07-30T06:04:52;20.30;84.90
16408;DHT22;8313;49.894;8.084;2022-07-30T06:07:17;20.30;84.30
16408;DHT22;8313;49.894;8.084;2022-07-30T06:09:43;20.30;84.30
16408;DHT22;8313;49.894;8.084;2022-07-30T06:12:09;20.30;85.40
16408;DHT22;8313;49.894;8.084;2022-07-30T06:14:35;20.30;84.90
16408;DHT22;8313;49.894;8.084;2022-07-30T06:17:02;20.30;84.50
16408;DHT22;8313;49.894;8.084;2022-07-30T06:19:44;20.40;85.00
16408;DHT22;8313;49.894;8.084;2022-07-30T06:22:10;20.40;84.70
16408;DHT22;8313;49.894;8.084;2022-07-30T06:24:41;20.40;85.30
16408;DHT22;8313;49.894;8.084;2022-07-30T06:27:14;20.50;85.10
16408;DHT22;8313;49.894;8.084;2022-07-30T06:29:40;20.50;85.50
16408;DHT22;8313;49.894;8.084;2022-07-30T06:32:06;20.50;84.90
16408;DHT22;8313;49.894;8.084;2022-07-30T06:34:32;20.60;85.40
16408;DHT22;8313;49.894;8.084;2022-07-30T06:36:58;20.60;86.40
16408;DHT22;8313;49.894;8.084;2022-07-30T06:39:24;20.60;85.50
16408;DHT22;8313;49.894;8.084;2022-07-30T06:41:53;20.70;85.80
16408;DHT22;8313;49.894;8.084;2022-07-30T06:44:19;20.70;85.10
16408;DHT22;8313;49.894;8.084;2022-07-30T06:47:03;20.70;85.70
16408;DHT22;8313;49.894;8.084;2022-07-30T06:49:31;20.80;87.30
16408;DHT22;8313;49.894;8.084;2022-07-30T06:51:58;20.90;87.20
16408;DHT22;8313;49.894;8.084;2022-07-30T06:54:24;21.00;87.50
16408;DHT22;8313;49.894;8.084;2022-07-30T06:56:52;21.10;87.30
16408;DHT22;8313;49.894;8.084;2022-07-30T06:59:18;21.10;87.30
16408;DHT22;8313;49.894;8.084;2022-07-30T07:02:07;21.10;87.60
16408;DHT22;8313;49.894;8.084;2022-07-30T07:04:47;21.20;87.40
16408;DHT22;8313;49.894;8.084;2022-07-30T07:07:13;21.30;87.70
16408;DHT22;8313;49.894;8.084;2022-07-30T07:09:40;21.40;87.60
16408;DHT22;8313;49.894;8.084;2022-07-30T07:12:24;21.40;87.40
16408;DHT22;8313;49.894;8.084;2022-07-30T07:14:50;21.50;87.20
16408;DHT22;8313;49.894;8.084;2022-07-30T07:17:16;21.50;87.60
16408;DHT22;8313;49.894;8.084;2022-07-30T07:20:01;21.60;87.40
16408;DHT22;8313;49.894;8.084;2022-07-30T07:22:28;21.70;87.10
16408;DHT22;8313;49.894;8.084;2022-07-30T07:24:54;21.70;86.60
16408;DHT22;8313;49.894;8.084;2022-07-30T07:27:24;21.70;86.80
16408;DHT22;8313;49.894;8.084;2022-07-30T07:29:54;21.70;86.60
16408;DHT22;8313;49.894;8.084;2022-07-30T07:32:20;21.80;87.00
16408;DHT22;8313;49.894;8.084;2022-07-30T07:34:45;21.90;86.90
16408;DHT22;8313;49.894;8.084;2022-07-30T07:37:12;21.90;87.10
16408;DHT22;8313;49.894;8.084;2022-07-30T07:39:39;22.00;87.60
16408;DHT22;8313;49.894;8.084;2022-07-30T07:42:05;22.00;86.70
16408;DHT22;8313;49.894;8.084;2022-07-30T07:44:31;22.10;86.70
16408;DHT22;8313;49.894;8.084;2022-07-30T07:46:57;22.20;87.10
16408;DHT22;8313;49.894;8.084;2022-07-30T07:49:26;22.20;86.60
16408;DHT22;8313;49.894;8.084;2022-07-30T07:51:53;22.30;87.50
16408;DHT22;8313;49.894;8.084;2022-07-30T07:54:19;22.40;87.70
16408;DHT22;8313;49.894;8.084;2022-07-30T07:56:46;22.50;88.70
16408;DHT22;8313;49.894;8.084;2022-07-30T07:59:13;22.50;89.30
16408;DHT22;8313;49.894;8.084;2022-07-30T08:01:39;22.60;88.20
16408;DHT22;8313;49.894;8.084;2022-07-30T08:04:25;22.70;88.70
16408;DHT22;8313;49.894;8.084;2022-07-30T08:07:09;22.70;88.70
16408;DHT22;8313;49.894;8.084;2022-07-30T08:09:53;22.80;88.70
16408;DHT22;8313;49.894;8.084;2022-07-30T08:12:48;22.90;88.60
16408;DHT22;8313;49.894;8.084;2022-07-30T08:15:32;22.90;88.00
16408;DHT22;8313;49.894;8.084;2022-07-30T08:17:57;23.00;87.80
16408;DHT22;8313;49.894;8.084;2022-07-30T08:20:42;23.00;86.70
16408;DHT22;8313;49.894;8.084;2022-07-30T08:23:10;23.10;86.90
16408;DHT22;8313;49.894;8.084;2022-07-30T08:25:36;23.20;87.40
16408;DHT22;8313;49.894;8.084;2022-07-30T08:28:02;23.30;86.50
16408;DHT22;8313;49.894;8.084;2022-07-30T08:30:28;23.40;86.50
16408;DHT22;8313;49.894;8.084;2022-07-30T08:32:55;23.40;85.80
16408;DHT22;8313;49.894;8.084;2022-07-30T08:35:21;23.60;86.00
16408;DHT22;8313;49.894;8.084;2022-07-30T08:37:47;23.60;85.70
16408;DHT22;8313;49.894;8.084;2022-07-30T08:40:14;23.70;86.20
16408;DHT22;8313;49.894;8.084;2022-07-30T08:42:51;23.80;85.50
16408;DHT22;8313;49.894;8.084;2022-07-30T08:45:17;23.90;85.20
16408;DHT22;8313;49.894;8.084;2022-07-30T08:47:44;24.00;84.50
16408;DHT22;8313;49.894;8.084;2022-07-30T08:50:11;24.10;84.00
16408;DHT22;8313;49.894;8.084;2022-07-30T08:52:54;24.10;83.70
16408;DHT22;8313;49.894;8.084;2022-07-30T08:55:21;24.20;84.10
16408;DHT22;8313;49.894;8.084;2022-07-30T08:57:48;24.30;83.10
16408;DHT22;8313;49.894;8.084;2022-07-30T09:00:14;24.30;82.20
16408;DHT22;8313;49.894;8.084;2022-07-30T09:02:41;24.40;83.20
16408;DHT22;8313;49.894;8.084;2022-07-30T09:05:08;24.40;81.00
16408;DHT22;8313;49.894;8.084;2022-07-30T09:07:35;24.50;81.70
16408;DHT22;8313;49.894;8.084;2022-07-30T09:10:07;24.50;81.00
16408;DHT22;8313;49.894;8.084;2022-07-30T09:12:44;24.60;80.80
16408;DHT22;8313;49.894;8.084;2022-07-30T09:15:18;24.70;80.20
16408;DHT22;8313;49.894;8.084;2022-07-30T09:17:55;24.80;79.60
16408;DHT22;8313;49.894;8.084;2022-07-30T09:20:27;24.70;79.30
16408;DHT22;8313;49.894;8.084;2022-07-30T09:22:58;24.80;78.70
16408;DHT22;8313;49.894;8.084;2022-07-30T09:25:48;24.90;79.10
16408;DHT22;8313;49.894;8.084;2022-07-30T09:28:35;24.90;78.60
16408;DHT22;8313;49.894;8.084;2022-07-30T09:31:14;25.10;78.10
16408;DHT22;8313;49.894;8.084;2022-07-30T09:34:25;25.20;79.20
16408;DHT22;8313;49.894;8.084;2022-07-30T09:39:41;25.50;77.20
16408;DHT22;8313;49.894;8.084;2022-07-30T09:42:21;25.50;76.40
16408;DHT22;8313;49.894;8.084;2022-07-30T09:44:50;25.60;75.90
16408;DHT22;8313;49.894;8.084;2022-07-30T09:50:12;25.80;75.30
16408;DHT22;8313;49.894;8.084;2022-07-30T09:52:40;26.00;74.60
16408;DHT22;8313;49.894;8.084;2022-07-30T09:55:07;26.00;73.60
16408;DHT22;8313;49.894;8.084;2022-07-30T09:57:33;26.10;73.60
16408;DHT22;8313;49.894;8.084;2022-07-30T10:00:19;26.20;73.20
16408;DHT22;8313;49.894;8.084;2022-07-30T10:02:52;26.30;72.30
16408;DHT22;8313;49.894;8.084;2022-07-30T10:05:36;26.40;69.50
16408;DHT22;8313;49.894;8.084;2022-07-30T10:08:03;26.50;69.10
16408;DHT22;8313;49.894;8.084;2022-07-30T10:10:30;26.50;69.10
16408;DHT22;8313;49.894;8.084;2022-07-30T10:13:02;26.60;68.90
16408;DHT22;8313;49.894;8.084;2022-07-30T10:15:33;26.50;66.90
16408;DHT22;8313;49.894;8.084;2022-07-30T10:18:00;26.60;66.20
16408;DHT22;8313;49.894;8.084;2022-07-30T10:20:49;26.60;66.80
16408;DHT22;8313;49.894;8.084;2022-07-30T10:23:47;26.70;65.70
16408;DHT22;8313;49.894;8.084;2022-07-30T10:26:33;26.60;62.20
16408;DHT22;8313;49.894;8.084;2022-07-30T10:29:18;26.50;64.90
16408;DHT22;8313;49.894;8.084;2022-07-30T10:31:45;26.80;61.20
16408;DHT22;8313;49.894;8.084;2022-07-30T10:34:12;26.90;63.30
16408;DHT22;8313;49.894;8.084;2022-07-30T10:36:54;27.00;61.80
16408;DHT22;8313;49.894;8.084;2022-07-30T10:39:29;27.00;61.10
16408;DHT22;8313;49.894;8.084;2022-07-30T10:45:15;27.10;62.60
16408;DHT22;8313;49.894;8.084;2022-07-30T10:47:43;27.30;62.40
16408;DHT22;8313;49.894;8.084;2022-07-30T10:50:13;27.40;61.10
16408;DHT22;8313;49.894;8.084;2022-07-30T10:52:57;27.50;61.60
16408;DHT22;8313;49.894;8.084;2022-07-30T10:55:30;27.60;60.50
16408;DHT22;8313;49.894;8.084;2022-07-30T10:58:03;27.50;59.00
16408;DHT22;8313;49.894;8.084;2022-07-30T11:01:16;27.60;60.50
16408;DHT22;8313;49.894;8.084;2022-07-30T11:05:44;27.70;59.40
16408;DHT22;8313;49.894;8.084;2022-07-30T11:10:55;27.90;59.00
16408;DHT22;8313;49.894;8.084;2022-07-30T11:13:52;27.80;57.90
16408;DHT22;8313;49.894;8.084;2022-07-30T11:16:21;27.40;57.90
16408;DHT22;8313;49.894;8.084;2022-07-30T11:19:05;27.60;58.80
16408;DHT22;8313;49.894;8.084;2022-07-30T11:21:31;27.90;58.60
16408;DHT22;8313;49.894;8.084;2022-07-30T11:23:58;28.00;58.10
16408;DHT22;8313;49.894;8.084;2022-07-30T11:29:07;28.30;58.40
16408;DHT22;8313;49.894;8.084;2022-07-30T11:31:34;28.50;57.90
16408;DHT22;8313;49.894;8.084;2022-07-30T11:37:13;28.10;57.10
16408;DHT22;8313;49.894;8.084;2022-07-30T11:42:28;28.40;56.30
16408;DHT22;8313;49.894;8.084;2022-07-30T11:47:46;28.30;57.00
16408;DHT22;8313;49.894;8.084;2022-07-30T11:50:24;28.30;56.50
16408;DHT22;8313;49.894;8.084;2022-07-30T11:52:55;28.50;57.20
16408;DHT22;8313;49.894;8.084;2022-07-30T11:55:29;28.80;56.30
16408;DHT22;8313;49.894;8.084;2022-07-30T11:57:56;29.00;56.40
16408;DHT22;8313;49.894;8.084;2022-07-30T12:00:23;29.10;56.30
16408;DHT22;8313;49.894;8.084;2022-07-30T12:02:49;29.10;55.90
16408;DHT22;8313;49.894;8.084;2022-07-30T12:05:22;29.10;56.40
16408;DHT22;8313;49.894;8.084;2022-07-30T12:07:48;29.10;54.70
16408;DHT22;8313;49.894;8.084;2022-07-30T12:10:18;29.10;55.10
16408;DHT22;8313;49.894;8.084;2022-07-30T12:12:45;28.90;54.80
16408;DHT22;8313;49.894;8.084;2022-07-30T12:15:27;29.10;55.20
16408;DHT22;8313;49.894;8.084;2022-07-30T12:17:53;29.30;55.40
16408;DHT22;8313;49.894;8.084;2022-07-30T12:20:19;29.50;55.80
16408;DHT22;8313;49.894;8.084;2022-07-30T12:22:46;29.60;55.60
16408;DHT22;8313;49.894;8.084;2022-07-30T12:25:13;29.50;54.40
16408;DHT22;8313;49.894;8.084;2022-07-30T12:27:39;29.10;53.90
16408;DHT22;8313;49.894;8.084;2022-07-30T12:30:09;29.20;54.00
16408;DHT22;8313;49.894;8.084;2022-07-30T12:32:35;29.20;54.40
16408;DHT22;8313;49.894;8.084;2022-07-30T12:35:02;29.40;54.10
16408;DHT22;8313;49.894;8.084;2022-07-30T12:37:28;29.30;54.00
16408;DHT22;8313;49.894;8.084;2022-07-30T12:40:11;29.30;54.70
16408;DHT22;8313;49.894;8.084;2022-07-30T12:42:52;29.50;54.50
16408;DHT22;8313;49.894;8.084;2022-07-30T12:45:25;29.70;54.60
16408;DHT22;8313;49.894;8.084;2022-07-30T12:47:51;29.90;54.10
16408;DHT22;8313;49.894;8.084;2022-07-30T12:50:17;30.00;54.10
16408;DHT22;8313;49.894;8.084;2022-07-30T12:52:48;30.00;53.70
16408;DHT22;8313;49.894;8.084;2022-07-30T12:55:16;29.60;53.30
16408;DHT22;8313;49.894;8.084;2022-07-30T12:57:54;29.40;53.30
16408;DHT22;8313;49.894;8.084;2022-07-30T13:00:22;29.10;53.60
16408;DHT22;8313;49.894;8.084;2022-07-30T13:02:48;29.00;53.80
16408;DHT22;8313;49.894;8.084;2022-07-30T13:05:14;29.00;54.20
16408;DHT22;8313;49.894;8.084;2022-07-30T13:07:56;29.10;54.10
16408;DHT22;8313;49.894;8.084;2022-07-30T13:10:23;29.00;53.80
16408;DHT22;8313;49.894;8.084;2022-07-30T13:12:49;29.00;53.70
16408;DHT22;8313;49.894;8.084;2022-07-30T13:15:19;29.00;54.10
16408;DHT22;8313;49.894;8.084;2022-07-30T13:17:46;29.20;54.00
16408;DHT22;8313;49.894;8.084;2022-07-30T13:20:13;29.20;53.90
16408;DHT22;8313;49.894;8.084;2022-07-30T13:22:39;29.20;54.00
16408;DHT22;8313;49.894;8.084;2022-07-30T13:25:06;29.30;53.70
16408;DHT22;8313;49.894;8.084;2022-07-30T13:27:31;29.40;54.10
16408;DHT22;8313;49.894;8.084;2022-07-30T13:29:57;29.10;53.90
16408;DHT22;8313;49.894;8.084;2022-07-30T13:32:23;28.90;54.50
16408;DHT22;8313;49.894;8.084;2022-07-30T13:34:48;29.20;54.40
16408;DHT22;8313;49.894;8.084;2022-07-30T13:37:14;29.30;54.00
16408;DHT22;8313;49.894;8.084;2022-07-30T13:39:39;29.10;53.50
16408;DHT22;8313;49.894;8.084;2022-07-30T13:42:05;28.80;54.00
16408;DHT22;8313;49.894;8.084;2022-07-30T13:44:31;28.80;53.90
16408;DHT22;8313;49.894;8.084;2022-07-30T13:46:57;28.90;54.20
16408;DHT22;8313;49.894;8.084;2022-07-30T13:49:22;29.10;54.10
16408;DHT22;8313;49.894;8.084;2022-07-30T13:51:48;29.00;53.90
16408;DHT22;8313;49.894;8.084;2022-07-30T13:54:14;28.80;53.80
16408;DHT22;8313;49.894;8.084;2022-07-30T13:56:39;28.80;53.90
16408;DHT22;8313;49.894;8.084;2022-07-30T13:59:06;28.80;54.10
16408;DHT22;8313;49.894;8.084;2022-07-30T14:01:31;28.80;53.80
16408;DHT22;8313;49.894;8.084;2022-07-30T14:03:57;28.90;53.70
16408;DHT22;8313;49.894;8.084;2022-07-30T14:06:23;29.00;53.60
16408;DHT22;8313;49.894;8.084;2022-07-30T14:08:48;29.00;53.80
16408;DHT22;8313;49.894;8.084;2022-07-30T14:11:14;29.10;53.90
16408;DHT22;8313;49.894;8.084;2022-07-30T14:13:40;29.00;53.60
16408;DHT22;8313;49.894;8.084;2022-07-30T14:16:06;29.20;54.00
16408;DHT22;8313;49.894;8.084;2022-07-30T14:18:32;29.40;54.00
16408;DHT22;8313;49.894;8.084;2022-07-30T14:20:58;29.20;53.60
16408;DHT22;8313;49.894;8.084;2022-07-30T14:23:24;29.00;53.50
16408;DHT22;8313;49.894;8.084;2022-07-30T14:25:50;28.90;53.40
16408;DHT22;8313;49.894;8.084;2022-07-30T14:28:16;28.90;53.80
16408;DHT22;8313;49.894;8.084;2022-07-30T14:30:42;29.10;53.80
16408;DHT22;8313;49.894;8.084;2022-07-30T14:33:08;29.10;53.50
16408;DHT22;8313;49.894;8.084;2022-07-30T14:35:34;29.00;53.30
16408;DHT22;8313;49.894;8.084;2022-07-30T14:38:00;29.10;53.30
16408;DHT22;8313;49.894;8.084;2022-07-30T14:40:27;29.30;53.50
16408;DHT22;8313;49.894;8.084;2022-07-30T14:42:54;29.40;53.60
16408;DHT22;8313;49.894;8.084;2022-07-30T14:45:19;29.50;53.60
16408;DHT22;8313;49.894;8.084;2022-07-30T14:47:45;29.40;53.10
16408;DHT22;8313;49.894;8.084;2022-07-30T14:50:11;29.20;52.90
16408;DHT22;8313;49.894;8.084;2022-07-30T14:52:37;29.10;52.90
16408;DHT22;8313;49.894;8.084;2022-07-30T14:55:07;29.20;52.90
16408;DHT22;8313;49.894;8.084;2022-07-30T14:57:33;29.10;52.60
16408;DHT22;8313;49.894;8.084;2022-07-30T14:59:59;29.10;53.00
16408;DHT22;8313;49.894;8.084;2022-07-30T15:02:25;29.20;53.00
16408;DHT22;8313;49.894;8.084;2022-07-30T15:04:51;29.20;52.90
16408;DHT22;8313;49.894;8.084;2022-07-30T15:07:17;29.20;52.70
16408;DHT22;8313;49.894;8.084;2022-07-30T15:09:42;29.30;52.90
16408;DHT22;8313;49.894;8.084;2022-07-30T15:12:08;29.50;52.70
16408;DHT22;8313;49.894;8.084;2022-07-30T15:14:38;29.50;52.90
16408;DHT22;8313;49.894;8.084;2022-07-30T15:17:04;29.70;52.50
16408;DHT22;8313;49.894;8.084;2022-07-30T15:19:31;29.30;52.50
16408;DHT22;8313;49.894;8.084;2022-07-30T15:21:58;29.30;52.50
16408;DHT22;8313;49.894;8.084;2022-07-30T15:24:26;29.40;52.60
16408;DHT22;8313;49.894;8.084;2022-07-30T15:26:52;29.40;52.40
16408;DHT22;8313;49.894;8.084;2022-07-30T15:29:17;29.30;52.30
16408;DHT22;8313;49.894;8.084;2022-07-30T15:31:43;29.20;52.00
16408;DHT22;8313;49.894;8.084;2022-07-30T15:34:09;29.20;52.40
16408;DHT22;8313;49.894;8.084;2022-07-30T15:36:37;29.30;52.50
16408;DHT22;8313;49.894;8.084;2022-07-30T15:39:06;29.30;52.40
16408;DHT22;8313;49.894;8.084;2022-07-30T15:41:32;29.30;52.10
16408;DHT22;8313;49.894;8.084;2022-07-30T15:43:58;29.30;52.20
16408;DHT22;8313;49.894;8.084;2022-07-30T15:46:23;29.20;52.20
16408;DHT22;8313;49.894;8.084;2022-07-30T15:48:49;29.30;51.90
16408;DHT22;8313;49.894;8.084;2022-07-30T15:51:15;29.30;51.70
16408;DHT22;8313;49.894;8.084;2022-07-30T15:53:41;29.30;52.00
16408;DHT22;8313;49.894;8.084;2022-07-30T15:56:07;29.30;52.10
16408;DHT22;8313;49.894;8.084;2022-07-30T15:58:32;29.20;52.20
16408;DHT22;8313;49.894;8.084;2022-07-30T16:00:58;29.20;51.90
16408;DHT22;8313;49.894;8.084;2022-07-30T16:03:24;29.20;51.70
16408;DHT22;8313;49.894;8.084;2022-07-30T16:05:50;29.10;51.80
16408;DHT22;8313;49.894;8.084;2022-07-30T16:08:15;29.20;51.90
16408;DHT22;8313;49.894;8.084;2022-07-30T16:10:41;29.10;51.70
16408;DHT22;8313;49.894;8.084;2022-07-30T16:13:07;29.20;51.80
16408;DHT22;8313;49.894;8.084;2022-07-30T16:15:33;29.20;51.70
16408;DHT22;8313;49.894;8.084;2022-07-30T16:17:59;29.30;52.00
16408;DHT22;8313;49.894;8.084;2022-07-30T16:20:25;29.30;51.40
16408;DHT22;8313;49.894;8.084;2022-07-30T16:22:50;29.10;51.10
16408;DHT22;8313;49.894;8.084;2022-07-30T16:25:16;28.90;51.00
16408;DHT22;8313;49.894;8.084;2022-07-30T16:27:42;29.00;51.20
16408;DHT22;8313;49.894;8.084;2022-07-30T16:30:08;29.10;51.10